sensor_id;sensor_type;location;lat;lon;timestamp;pressure;altitude;pressure_sealevel;temperature;humidity
11017;BME280;54687;50.800;6.772;2023-01-26T00:01:50;61214.50;;;-144.06;61.98
11017;BME280;54687;50.800;6.772;2023-01-26T00:04:17;61227.06;;;-144.06;61.58
11017;BME280;54687;50.800;6.772;2023-01-26T00:06:44;61227.06;;;-144.06;61.29
11017;BME280;54687;50.800;6.772;2023-01-26T00:09:12;61193.53;;;-144.06;61.57
11017;BME280;54687;50.800;6.772;2023-01-26T00:11:41;61210.31;;;-144.06;61.60
11017;BME280;54687;50.800;6.772;2023-01-26T00:14:08;61222.88;;;-144.06;61.39
11017;BME280;54687;50.800;6.772;2023-01-26T00:16:34;61243.84;;;-144.06;61.56
11017;BME280;54687;50.800;6.772;2023-01-26T00:19:01;61248.03;;;-144.06;61.53
11017;BME280;54687;50.800;6.772;2023-01-26T00:21:28;61185.16;;;-144.06;61.46
11017;BME280;54687;50.800;6.772;2023-01-26T00:23:54;61216.59;;;-144.06;61.30
11017;BME280;54687;50.800;6.772;2023-01-26T00:26:23;61216.59;;;-144.06;61.73
11017;BME280;54687;50.800;6.772;2023-01-26T00:28:51;61193.53;;;-144.06;61.31
11017;BME280;54687;50.800;6.772;2023-01-26T00:31:20;61218.69;;;-144.06;60.96
11017;BME280;54687;50.800;6.772;2023-01-26T00:33:47;61216.59;;;-144.06;60.97
11017;BME280;54687;50.800;6.772;2023-01-26T00:36:14;61231.25;;;-144.06;61.07
11017;BME280;54687;50.800;6.772;2023-01-26T00:38:41;61214.50;;;-144.06;61.13
11017;BME280;54687;50.800;6.772;2023-01-26T00:41:08;61222.88;;;-144.06;61.61
11017;BME280;54687;50.800;6.772;2023-01-26T00:43:56;61231.25;;;-144.06;63.10
11017;BME280;54687;50.800;6.772;2023-01-26T00:46:23;61224.97;;;-144.06;62.64
11017;BME280;54687;50.800;6.772;2023-01-26T00:48:49;61216.59;;;-144.06;62.35
11017;BME280;54687;50.800;6.772;2023-01-26T00:51:16;61252.22;;;-144.06;61.95
11017;BME280;54687;50.800;6.772;2023-01-26T00:53:42;61229.16;;;-144.06;62.34
11017;BME280;54687;50.800;6.772;2023-01-26T00:56:09;61185.16;;;-144.06;61.90
11017;BME280;54687;50.800;6.772;2023-01-26T00:58:36;61199.81;;;-144.06;61.58
11017;BME280;54687;50.800;6.772;2023-01-26T01:01:04;61195.63;;;-144.06;61.88
11017;BME280;54687;50.800;6.772;2023-01-26T01:03:30;61187.25;;;-144.06;61.88
11017;BME280;54687;50.800;6.772;2023-01-26T01:05:57;61222.88;;;-144.06;61.83
11017;BME280;54687;50.800;6.772;2023-01-26T01:08:23;61237.56;;;-144.06;62.44
11017;BME280;54687;50.800;6.772;2023-01-26T01:11:01;61180.97;;;-144.06;61.92
11017;BME280;54687;50.800;6.772;2023-01-26T01:13:28;61210.31;;;-144.06;61.99
11017;BME280;54687;50.800;6.772;2023-01-26T01:15:55;61210.31;;;-144.06;61.90
11017;BME280;54687;50.800;6.772;2023-01-26T01:18:25;61208.22;;;-144.06;61.75
11017;BME280;54687;50.800;6.772;2023-01-26T01:20:52;61197.72;;;-144.06;61.44
11017;BME280;54687;50.800;6.772;2023-01-26T01:23:18;61231.25;;;-144.06;61.76
11017;BME280;54687;50.800;6.772;2023-01-26T01:25:45;61195.63;;;-144.06;61.63
11017;BME280;54687;50.800;6.772;2023-01-26T01:28:11;61214.50;;;-144.06;61.04
11017;BME280;54687;50.800;6.772;2023-01-26T01:30:38;61216.59;;;-144.06;61.03
11017;BME280;54687;50.800;6.772;2023-01-26T01:33:04;61237.56;;;-144.06;61.39
11017;BME280;54687;50.800;6.772;2023-01-26T01:35:32;61212.41;;;-144.06;61.55
11017;BME280;54687;50.800;6.772;2023-01-26T01:38:00;61214.50;;;-144.06;61.65
11017;BME280;54687;50.800;6.772;2023-01-26T01:40:27;61220.78;;;-144.06;62.05
11017;BME280;54687;50.800;6.772;2023-01-26T01:42:54;61193.53;;;-144.06;62.53
11017;BME280;54687;50.800;6.772;2023-01-26T01:45:35;61254.31;;;-144.06;62.18
11017;BME280;54687;50.800;6.772;2023-01-26T01:48:10;61222.88;;;-144.06;62.00
11017;BME280;54687;50.800;6.772;2023-01-26T01:50:40;61220.78;;;-144.06;61.31
11017;BME280;54687;50.800;6.772;2023-01-26T01:53:11;61252.22;;;-144.06;61.45
11017;BME280;54687;50.800;6.772;2023-01-26T01:55:40;61216.59;;;-144.06;61.60
11017;BME280;54687;50.800;6.772;2023-01-26T01:58:07;61235.47;;;-144.06;61.72
11017;BME280;54687;50.800;6.772;2023-01-26T02:00:34;61210.31;;;-144.06;61.42
11017;BME280;54687;50.800;6.772;2023-01-26T02:03:04;61197.72;;;-144.06;61.04
11017;BME280;54687;50.800;6.772;2023-01-26T02:05:46;61193.53;;;-144.06;61.27
11017;BME280;54687;50.800;6.772;2023-01-26T02:08:16;61218.69;;;-144.06;61.12
11017;BME280;54687;50.800;6.772;2023-01-26T02:10:45;61197.72;;;-144.06;60.38
11017;BME280;54687;50.800;6.772;2023-01-26T02:13:13;61248.03;;;-144.06;59.88
11017;BME280;54687;50.800;6.772;2023-01-26T02:15:41;61201.91;;;-144.06;59.77
11017;BME280;54687;50.800;6.772;2023-01-26T02:18:08;61214.50;;;-144.06;60.36
11017;BME280;54687;50.800;6.772;2023-01-26T02:20:42;61235.47;;;-144.06;60.72
11017;BME280;54687;50.800;6.772;2023-01-26T02:23:19;61214.50;;;-144.06;60.09
11017;BME280;54687;50.800;6.772;2023-01-26T02:26:06;61189.34;;;-144.06;60.30
11017;BME280;54687;50.800;6.772;2023-01-26T02:28:33;61201.91;;;-144.06;60.13
11017;BME280;54687;50.800;6.772;2023-01-26T02:31:00;61206.09;;;-144.06;59.76
11017;BME280;54687;50.800;6.772;2023-01-26T02:33:29;61206.09;;;-144.06;59.92
11017;BME280;54687;50.800;6.772;2023-01-26T02:35:56;61199.81;;;-144.06;59.28
11017;BME280;54687;50.800;6.772;2023-01-26T02:38:27;61235.47;;;-144.06;59.04
11017;BME280;54687;50.800;6.772;2023-01-26T02:40:57;61193.53;;;-144.06;59.19
11017;BME280;54687;50.800;6.772;2023-01-26T02:43:27;61189.34;;;-144.06;59.38
11017;BME280;54687;50.800;6.772;2023-01-26T02:45:53;61212.41;;;-144.06;58.97
11017;BME280;54687;50.800;6.772;2023-01-26T02:48:20;61189.34;;;-144.06;59.08
11017;BME280;54687;50.800;6.772;2023-01-26T02:51:00;61214.50;;;-144.06;59.36
11017;BME280;54687;50.800;6.772;2023-01-26T02:53:27;61220.78;;;-144.06;59.44
11017;BME280;54687;50.800;6.772;2023-01-26T02:55:54;61220.78;;;-144.06;59.40
11017;BME280;54687;50.800;6.772;2023-01-26T02:58:20;61214.50;;;-144.06;59.71
11017;BME280;54687;50.800;6.772;2023-01-26T03:00:48;61237.56;;;-144.06;59.40
11017;BME280;54687;50.800;6.772;2023-01-26T03:03:17;61218.69;;;-144.06;59.53
11017;BME280;54687;50.800;6.772;2023-01-26T03:05:45;61201.91;;;-144.06;59.47
11017;BME280;54687;50.800;6.772;2023-01-26T03:08:12;61176.75;;;-144.06;59.70
11017;BME280;54687;50.800;6.772;2023-01-26T03:10:38;61208.22;;;-144.06;60.19
11017;BME280;54687;50.800;6.772;2023-01-26T03:13:06;61189.34;;;-144.06;60.28
11017;BME280;54687;50.800;6.772;2023-01-26T03:15:32;61252.22;;;-144.06;60.55
11017;BME280;54687;50.800;6.772;2023-01-26T03:18:11;61168.38;;;-144.06;60.57
11017;BME280;54687;50.800;6.772;2023-01-26T03:21:03;61227.06;;;-144.06;60.88
11017;BME280;54687;50.800;6.772;2023-01-26T03:23:48;61164.19;;;-144.06;60.80
11017;BME280;54687;50.800;6.772;2023-01-26T03:26:32;61208.22;;;-144.06;61.07
11017;BME280;54687;50.800;6.772;2023-01-26T03:29:17;61248.03;;;-144.06;61.53
11017;BME280;54687;50.800;6.772;2023-01-26T03:31:43;61227.06;;;-144.06;61.67
11017;BME280;54687;50.800;6.772;2023-01-26T03:34:11;61222.88;;;-144.06;61.82
11017;BME280;54687;50.800;6.772;2023-01-26T03:36:38;61206.09;;;-144.06;62.05
11017;BME280;54687;50.800;6.772;2023-01-26T03:39:05;61199.81;;;-144.06;62.53
11017;BME280;54687;50.800;6.772;2023-01-26T03:41:31;61227.06;;;-144.06;62.58
11017;BME280;54687;50.800;6.772;2023-01-26T03:44:16;61214.50;;;-144.06;62.54
11017;BME280;54687;50.800;6.772;2023-01-26T03:47:00;61199.81;;;-144.06;62.04
11017;BME280;54687;50.800;6.772;2023-01-26T03:49:46;61218.69;;;-144.06;62.41
11017;BME280;54687;50.800;6.772;2023-01-26T03:52:30;61208.22;;;-144.06;62.61
11017;BME280;54687;50.800;6.772;2023-01-26T03:55:14;61193.53;;;-144.06;62.27
11017;BME280;54687;50.800;6.772;2023-01-26T03:57:59;61233.38;;;-144.06;61.51
11017;BME280;54687;50.800;6.772;2023-01-26T04:00:25;61227.06;;;-144.06;61.53
11017;BME280;54687;50.800;6.772;2023-01-26T04:02:52;61231.25;;;-144.06;61.69
11017;BME280;54687;50.800;6.772;2023-01-26T04:05:37;61197.72;;;-144.06;61.52
11017;BME280;54687;50.800;6.772;2023-01-26T04:08:22;61227.06;;;-144.06;61.48
11017;BME280;54687;50.800;6.772;2023-01-26T04:10:49;61210.31;;;-144.06;60.97
11017;BME280;54687;50.800;6.772;2023-01-26T04:13:16;61214.50;;;-144.06;61.38
11017;BME280;54687;50.800;6.772;2023-01-26T04:16:01;61187.25;;;-144.06;61.31
11017;BME280;54687;50.800;6.772;2023-01-26T04:18:45;61210.31;;;-144.06;61.14
11017;BME280;54687;50.800;6.772;2023-01-26T04:21:31;61201.91;;;-144.06;61.02
11017;BME280;54687;50.800;6.772;2023-01-26T04:23:59;61201.91;;;-144.06;61.22
11017;BME280;54687;50.800;6.772;2023-01-26T04:26:28;61191.44;;;-144.06;61.26
11017;BME280;54687;50.800;6.772;2023-01-26T04:28:59;61195.63;;;-144.06;61.46
11017;BME280;54687;50.800;6.772;2023-01-26T04:31:27;61185.16;;;-144.06;61.34
11017;BME280;54687;50.800;6.772;2023-01-26T04:33:53;61201.91;;;-144.06;61.29
11017;BME280;54687;50.800;6.772;2023-01-26T04:36:20;61227.06;;;-144.06;61.10
11017;BME280;54687;50.800;6.772;2023-01-26T04:38:48;61176.75;;;-144.06;61.09
11017;BME280;54687;50.800;6.772;2023-01-26T04:41:15;61210.31;;;-144.06;61.23
11017;BME280;54687;50.800;6.772;2023-01-26T04:43:42;61273.19;;;-144.06;60.75
11017;BME280;54687;50.800;6.772;2023-01-26T04:46:08;61235.47;;;-144.06;60.89
11017;BME280;54687;50.800;6.772;2023-01-26T04:48:35;61201.91;;;-144.06;61.51
11017;BME280;54687;50.800;6.772;2023-01-26T04:51:03;61243.84;;;-144.06;61.46
11017;BME280;54687;50.800;6.772;2023-01-26T04:53:31;61231.25;;;-144.06;61.11
11017;BME280;54687;50.800;6.772;2023-01-26T04:55:59;61206.09;;;-144.06;60.92
11017;BME280;54687;50.800;6.772;2023-01-26T04:58:26;61208.22;;;-144.06;61.53
11017;BME280;54687;50.800;6.772;2023-01-26T05:00:54;61237.56;;;-144.06;61.16
11017;BME280;54687;50.800;6.772;2023-01-26T05:03:21;61239.66;;;-144.06;61.73
11017;BME280;54687;50.800;6.772;2023-01-26T05:05:48;61262.72;;;-144.06;61.68
11017;BME280;54687;50.800;6.772;2023-01-26T05:08:16;61233.38;;;-144.06;61.82
11017;BME280;54687;50.800;6.772;2023-01-26T05:10:43;61189.34;;;-144.06;61.71
11017;BME280;54687;50.800;6.772;2023-01-26T05:13:12;61206.09;;;-144.06;61.96
11017;BME280;54687;50.800;6.772;2023-01-26T05:15:39;61258.53;;;-144.06;61.75
11017;BME280;54687;50.800;6.772;2023-01-26T05:18:06;61214.50;;;-144.06;61.48
11017;BME280;54687;50.800;6.772;2023-01-26T05:20:32;61206.09;;;-144.06;61.15
11017;BME280;54687;50.800;6.772;2023-01-26T05:22:59;61231.25;;;-144.06;61.19
11017;BME280;54687;50.800;6.772;2023-01-26T05:25:26;61204.00;;;-144.06;61.39
11017;BME280;54687;50.800;6.772;2023-01-26T05:27:52;61214.50;;;-144.06;61.47
11017;BME280;54687;50.800;6.772;2023-01-26T05:30:20;61218.69;;;-144.06;61.58
11017;BME280;54687;50.800;6.772;2023-01-26T05:32:47;61222.88;;;-144.06;62.08
11017;BME280;54687;50.800;6.772;2023-01-26T05:35:14;61208.22;;;-144.06;61.62
11017;BME280;54687;50.800;6.772;2023-01-26T05:37:41;61248.03;;;-144.06;61.84
11017;BME280;54687;50.800;6.772;2023-01-26T05:40:08;61224.97;;;-144.06;62.63
11017;BME280;54687;50.800;6.772;2023-01-26T05:42:35;61172.56;;;-144.06;62.20
11017;BME280;54687;50.800;6.772;2023-01-26T05:45:02;61210.31;;;-144.06;62.82
11017;BME280;54687;50.800;6.772;2023-01-26T05:47:30;61252.22;;;-144.06;62.89
11017;BME280;54687;50.800;6.772;2023-01-26T05:49:57;61256.41;;;-144.06;63.05
11017;BME280;54687;50.800;6.772;2023-01-26T05:52:23;61193.53;;;-144.06;63.12
11017;BME280;54687;50.800;6.772;2023-01-26T05:54:50;61201.91;;;-144.06;62.98
11017;BME280;54687;50.800;6.772;2023-01-26T05:57:16;61264.81;;;-144.06;62.90
11017;BME280;54687;50.800;6.772;2023-01-26T05:59:43;61210.31;;;-144.06;62.61
11017;BME280;54687;50.800;6.772;2023-01-26T06:02:11;61222.88;;;-144.06;62.22
11017;BME280;54687;50.800;6.772;2023-01-26T06:04:39;61222.88;;;-144.06;61.96
11017;BME280;54687;50.800;6.772;2023-01-26T06:07:05;61248.03;;;-144.06;61.68
11017;BME280;54687;50.800;6.772;2023-01-26T06:09:32;61210.31;;;-144.06;61.92
11017;BME280;54687;50.800;6.772;2023-01-26T06:11:59;61224.97;;;-144.06;61.83
11017;BME280;54687;50.800;6.772;2023-01-26T06:14:25;61235.47;;;-144.06;61.54
11017;BME280;54687;50.800;6.772;2023-01-26T06:16:52;61218.69;;;-144.06;61.86
11017;BME280;54687;50.800;6.772;2023-01-26T06:19:20;61248.03;;;-144.06;62.15
11017;BME280;54687;50.800;6.772;2023-01-26T06:21:48;61206.09;;;-144.06;61.99
11017;BME280;54687;50.800;6.772;2023-01-26T06:24:15;61206.09;;;-144.06;62.06
11017;BME280;54687;50.800;6.772;2023-01-26T06:26:42;61210.31;;;-144.06;62.13
11017;BME280;54687;50.800;6.772;2023-01-26T06:29:08;61193.53;;;-144.06;62.70
11017;BME280;54687;50.800;6.772;2023-01-26T06:31:35;61210.31;;;-144.06;62.81
11017;BME280;54687;50.800;6.772;2023-01-26T06:34:02;61216.59;;;-144.06;62.74
11017;BME280;54687;50.800;6.772;2023-01-26T06:36:29;61214.50;;;-144.06;62.70
11017;BME280;54687;50.800;6.772;2023-01-26T06:38:57;61248.03;;;-144.06;63.20
11017;BME280;54687;50.800;6.772;2023-01-26T06:41:24;61176.75;;;-144.06;62.96
11017;BME280;54687;50.800;6.772;2023-01-26T06:43:51;61222.88;;;-144.06;63.44
11017;BME280;54687;50.800;6.772;2023-01-26T06:46:18;61220.78;;;-144.06;63.64
11017;BME280;54687;50.800;6.772;2023-01-26T06:48:45;61214.50;;;-144.06;63.79
11017;BME280;54687;50.800;6.772;2023-01-26T06:51:45;61189.34;;;-144.06;63.74
11017;BME280;54687;50.800;6.772;2023-01-26T06:54:14;61216.59;;;-144.06;63.96
11017;BME280;54687;50.800;6.772;2023-01-26T06:56:41;61191.44;;;-144.06;63.65
11017;BME280;54687;50.800;6.772;2023-01-26T06:59:08;61214.50;;;-144.06;63.66
11017;BME280;54687;50.800;6.772;2023-01-26T07:01:37;61273.19;;;-144.06;63.53
11017;BME280;54687;50.800;6.772;2023-01-26T07:04:05;61204.00;;;-144.06;63.30
11017;BME280;54687;50.800;6.772;2023-01-26T07:06:32;61260.63;;;-144.06;63.40
11017;BME280;54687;50.800;6.772;2023-01-26T07:08:58;61210.31;;;-144.06;63.44
11017;BME280;54687;50.800;6.772;2023-01-26T07:11:26;61212.41;;;-144.06;63.74
11017;BME280;54687;50.800;6.772;2023-01-26T07:13:55;61227.06;;;-144.06;63.66
11017;BME280;54687;50.800;6.772;2023-01-26T07:16:21;61174.66;;;-144.06;63.65
11017;BME280;54687;50.800;6.772;2023-01-26T07:18:48;61218.69;;;-144.06;63.59
11017;BME280;54687;50.800;6.772;2023-01-26T07:21:16;61275.28;;;-144.06;63.64
11017;BME280;54687;50.800;6.772;2023-01-26T07:23:43;61218.69;;;-144.06;64.30
11017;BME280;54687;50.800;6.772;2023-01-26T07:26:10;61214.50;;;-144.06;64.25
11017;BME280;54687;50.800;6.772;2023-01-26T07:28:39;61218.69;;;-144.06;64.46
11017;BME280;54687;50.800;6.772;2023-01-26T07:31:06;61224.97;;;-144.06;64.80
11017;BME280;54687;50.800;6.772;2023-01-26T07:33:33;61262.72;;;-144.06;64.61
11017;BME280;54687;50.800;6.772;2023-01-26T07:36:00;61189.34;;;-144.06;65.02
11017;BME280;54687;50.800;6.772;2023-01-26T07:38:28;61210.31;;;-144.06;64.72
11017;BME280;54687;50.800;6.772;2023-01-26T07:40:55;61214.50;;;-144.06;64.03
11017;BME280;54687;50.800;6.772;2023-01-26T07:43:22;61220.78;;;-144.06;63.85
11017;BME280;54687;50.800;6.772;2023-01-26T07:45:52;61214.50;;;-144.06;63.96
11017;BME280;54687;50.800;6.772;2023-01-26T07:48:21;61199.81;;;-144.06;63.52
11017;BME280;54687;50.800;6.772;2023-01-26T07:50:48;61220.78;;;-144.06;63.22
11017;BME280;54687;50.800;6.772;2023-01-26T07:53:16;61239.66;;;-144.06;63.13
11017;BME280;54687;50.800;6.772;2023-01-26T07:55:45;61220.78;;;-144.06;62.95
11017;BME280;54687;50.800;6.772;2023-01-26T07:58:12;61210.31;;;-144.06;62.83
11017;BME280;54687;50.800;6.772;2023-01-26T08:00:39;61222.88;;;-144.06;62.81
11017;BME280;54687;50.800;6.772;2023-01-26T08:03:07;61235.47;;;-144.06;62.74
11017;BME280;54687;50.800;6.772;2023-01-26T08:05:34;61235.47;;;-144.06;62.61
11017;BME280;54687;50.800;6.772;2023-01-26T08:08:03;61256.41;;;-144.06;62.07
11017;BME280;54687;50.800;6.772;2023-01-26T08:10:30;61189.34;;;-144.06;61.95
11017;BME280;54687;50.800;6.772;2023-01-26T08:12:57;61176.75;;;-144.06;61.90
11017;BME280;54687;50.800;6.772;2023-01-26T08:15:24;61218.69;;;-144.06;62.14
11017;BME280;54687;50.800;6.772;2023-01-26T08:17:52;61193.53;;;-144.06;62.12
11017;BME280;54687;50.800;6.772;2023-01-26T08:20:20;61227.06;;;-144.06;61.49
11017;BME280;54687;50.800;6.772;2023-01-26T08:22:47;61189.34;;;-144.06;61.87
11017;BME280;54687;50.800;6.772;2023-01-26T08:25:13;61214.50;;;-144.06;62.51
11017;BME280;54687;50.800;6.772;2023-01-26T08:27:41;61260.63;;;-144.06;62.54
11017;BME280;54687;50.800;6.772;2023-01-26T08:30:11;61250.13;;;-144.06;62.82
11017;BME280;54687;50.800;6.772;2023-01-26T08:32:39;61210.31;;;-144.06;62.73
11017;BME280;54687;50.800;6.772;2023-01-26T08:35:06;61172.56;;;-144.06;62.88
11017;BME280;54687;50.800;6.772;2023-01-26T08:37:34;61210.31;;;-144.06;62.69
11017;BME280;54687;50.800;6.772;2023-01-26T08:40:01;61183.06;;;-144.06;62.07
11017;BME280;54687;50.800;6.772;2023-01-26T08:42:27;61197.72;;;-144.06;61.53
11017;BME280;54687;50.800;6.772;2023-01-26T08:44:54;61208.22;;;-144.06;61.41
11017;BME280;54687;50.800;6.772;2023-01-26T08:47:20;61178.84;;;-144.06;61.82
11017;BME280;54687;50.800;6.772;2023-01-26T08:49:47;61218.69;;;-144.06;61.02
11017;BME280;54687;50.800;6.772;2023-01-26T08:52:14;61185.16;;;-144.06;60.62
11017;BME280;54687;50.800;6.772;2023-01-26T08:54:42;61233.38;;;-144.06;60.23
11017;BME280;54687;50.800;6.772;2023-01-26T08:57:08;61208.22;;;-144.06;60.03
11017;BME280;54687;50.800;6.772;2023-01-26T08:59:36;61245.94;;;-144.06;59.90
11017;BME280;54687;50.800;6.772;2023-01-26T09:02:02;61172.56;;;-144.06;59.75
11017;BME280;54687;50.800;6.772;2023-01-26T09:04:29;61227.06;;;-144.06;59.54
11017;BME280;54687;50.800;6.772;2023-01-26T09:06:56;61239.66;;;-144.06;59.74
11017;BME280;54687;50.800;6.772;2023-01-26T09:09:22;61210.31;;;-144.06;59.25
11017;BME280;54687;50.800;6.772;2023-01-26T09:11:53;61197.72;;;-144.06;59.49
11017;BME280;54687;50.800;6.772;2023-01-26T09:14:20;61218.69;;;-144.06;59.23
11017;BME280;54687;50.800;6.772;2023-01-26T09:16:48;61218.69;;;-144.06;59.45
11017;BME280;54687;50.800;6.772;2023-01-26T09:19:14;61243.84;;;-144.06;59.09
11017;BME280;54687;50.800;6.772;2023-01-26T09:21:41;61239.66;;;-144.06;59.28
11017;BME280;54687;50.800;6.772;2023-01-26T09:24:08;61210.31;;;-144.06;59.52
11017;BME280;54687;50.800;6.772;2023-01-26T09:26:35;61229.16;;;-144.06;59.40
11017;BME280;54687;50.800;6.772;2023-01-26T09:29:03;61180.97;;;-144.06;60.02
11017;BME280;54687;50.800;6.772;2023-01-26T09:31:29;61231.25;;;-144.06;60.27
11017;BME280;54687;50.800;6.772;2023-01-26T09:33:56;61227.06;;;-144.06;59.89
11017;BME280;54687;50.800;6.772;2023-01-26T09:36:22;61214.50;;;-144.06;59.55
11017;BME280;54687;50.800;6.772;2023-01-26T09:38:49;61239.66;;;-144.06;59.82
11017;BME280;54687;50.800;6.772;2023-01-26T09:41:32;61193.53;;;-144.06;59.72
11017;BME280;54687;50.800;6.772;2023-01-26T09:44:07;61204.00;;;-144.06;60.05
11017;BME280;54687;50.800;6.772;2023-01-26T09:46:44;61206.09;;;-144.06;60.01
11017;BME280;54687;50.800;6.772;2023-01-26T09:49:17;61197.72;;;-144.06;60.12
11017;BME280;54687;50.800;6.772;2023-01-26T09:51:48;61199.81;;;-144.06;60.31
11017;BME280;54687;50.800;6.772;2023-01-26T09:54:23;61155.81;;;-144.06;59.51
11017;BME280;54687;50.800;6.772;2023-01-26T09:56:53;61243.84;;;-144.06;59.64
11017;BME280;54687;50.800;6.772;2023-01-26T09:59:29;61218.69;;;-144.06;60.08
11017;BME280;54687;50.800;6.772;2023-01-26T10:02:03;61222.88;;;-144.06;60.29
11017;BME280;54687;50.800;6.772;2023-01-26T10:04:33;61248.03;;;-144.06;59.83
11017;BME280;54687;50.800;6.772;2023-01-26T10:07:03;61185.16;;;-144.06;59.92
11017;BME280;54687;50.800;6.772;2023-01-26T10:09:34;61222.88;;;-144.06;59.23
11017;BME280;54687;50.800;6.772;2023-01-26T10:12:06;61210.31;;;-144.06;59.71
11017;BME280;54687;50.800;6.772;2023-01-26T10:14:37;61222.88;;;-144.06;59.36
11017;BME280;54687;50.800;6.772;2023-01-26T10:17:14;61227.06;;;-144.06;60.49
11017;BME280;54687;50.800;6.772;2023-01-26T10:19:46;61201.91;;;-144.06;59.69
11017;BME280;54687;50.800;6.772;2023-01-26T10:22:19;61235.47;;;-144.06;60.41
11017;BME280;54687;50.800;6.772;2023-01-26T10:24:49;61195.63;;;-144.06;60.72
11017;BME280;54687;50.800;6.772;2023-01-26T10:27:17;61239.66;;;-144.06;60.44
11017;BME280;54687;50.800;6.772;2023-01-26T10:29:45;61222.88;;;-144.06;60.50
11017;BME280;54687;50.800;6.772;2023-01-26T10:32:13;61220.78;;;-144.06;60.67
11017;BME280;54687;50.800;6.772;2023-01-26T10:34:40;61180.97;;;-144.06;60.55
11017;BME280;54687;50.800;6.772;2023-01-26T10:37:17;61210.31;;;-144.06;60.20
11017;BME280;54687;50.800;6.772;2023-01-26T10:40:00;61275.28;;;-144.06;60.08
11017;BME280;54687;50.800;6.772;2023-01-26T10:42:29;61227.06;;;-144.06;60.42
11017;BME280;54687;50.800;6.772;2023-01-26T10:44:58;61197.72;;;-144.06;60.70
11017;BME280;54687;50.800;6.772;2023-01-26T10:47:27;61185.16;;;-144.06;61.04
11017;BME280;54687;50.800;6.772;2023-01-26T10:50:13;61180.97;;;-144.06;61.00
11017;BME280;54687;50.800;6.772;2023-01-26T10:52:56;61227.06;;;-144.06;61.43
11017;BME280;54687;50.800;6.772;2023-01-26T10:55:24;61222.88;;;-144.06;61.01
11017;BME280;54687;50.800;6.772;2023-01-26T10:57:51;61229.16;;;-144.06;60.75
11017;BME280;54687;50.800;6.772;2023-01-26T11:00:23;61212.41;;;-144.06;60.57
11017;BME280;54687;50.800;6.772;2023-01-26T11:02:52;61233.38;;;-144.06;60.67
11017;BME280;54687;50.800;6.772;2023-01-26T11:05:21;61206.09;;;-144.06;61.09
11017;BME280;54687;50.800;6.772;2023-01-26T11:07:50;61195.63;;;-144.06;61.21
11017;BME280;54687;50.800;6.772;2023-01-26T11:10:24;61197.72;;;-144.06;61.71
11017;BME280;54687;50.800;6.772;2023-01-26T11:13:06;61243.84;;;-144.06;61.14
11017;BME280;54687;50.800;6.772;2023-01-26T11:15:36;61197.72;;;-144.06;60.58
11017;BME280;54687;50.800;6.772;2023-01-26T11:18:10;61201.91;;;-144.06;61.36
11017;BME280;54687;50.800;6.772;2023-01-26T11:20:45;61218.69;;;-144.06;60.82
11017;BME280;54687;50.800;6.772;2023-01-26T11:23:20;61227.06;;;-144.06;60.54
11017;BME280;54687;50.800;6.772;2023-01-26T11:26:02;61222.88;;;-144.06;61.44
11017;BME280;54687;50.800;6.772;2023-01-26T11:28:43;61220.78;;;-144.06;61.83
11017;BME280;54687;50.800;6.772;2023-01-26T11:31:22;61273.19;;;-144.06;61.48
11017;BME280;54687;50.800;6.772;2023-01-26T11:34:05;61218.69;;;-144.06;61.61
11017;BME280;54687;50.800;6.772;2023-01-26T11:36:44;61224.97;;;-144.06;61.68
11017;BME280;54687;50.800;6.772;2023-01-26T11:39:20;61222.88;;;-144.06;61.92
11017;BME280;54687;50.800;6.772;2023-01-26T11:42:02;61208.22;;;-144.06;61.48
11017;BME280;54687;50.800;6.772;2023-01-26T11:44:45;61231.25;;;-144.06;61.40
11017;BME280;54687;50.800;6.772;2023-01-26T11:47:28;61227.06;;;-144.06;62.16
11017;BME280;54687;50.800;6.772;2023-01-26T11:50:12;61197.72;;;-144.06;61.63
11017;BME280;54687;50.800;6.772;2023-01-26T11:52:50;61237.56;;;-144.06;62.14
11017;BME280;54687;50.800;6.772;2023-01-26T11:55:27;61212.41;;;-144.06;62.00
11017;BME280;54687;50.800;6.772;2023-01-26T11:58:11;61172.56;;;-144.06;61.48
11017;BME280;54687;50.800;6.772;2023-01-26T12:00:41;61235.47;;;-144.06;61.43
11017;BME280;54687;50.800;6.772;2023-01-26T12:03:17;61237.56;;;-144.06;61.78
11017;BME280;54687;50.800;6.772;2023-01-26T12:05:50;61245.94;;;-144.06;61.97
11017;BME280;54687;50.800;6.772;2023-01-26T12:08:22;61250.13;;;-144.06;62.18
11017;BME280;54687;50.800;6.772;2023-01-26T12:10:58;61212.41;;;-144.06;61.38
11017;BME280;54687;50.800;6.772;2023-01-26T12:13:54;61208.22;;;-144.06;61.88
11017;BME280;54687;50.800;6.772;2023-01-26T12:16:27;61231.25;;;-144.06;61.54
11017;BME280;54687;50.800;6.772;2023-01-26T12:19:04;61214.50;;;-144.06;61.85
11017;BME280;54687;50.800;6.772;2023-01-26T12:21:36;61231.25;;;-144.06;62.76
11017;BME280;54687;50.800;6.772;2023-01-26T12:24:04;61206.09;;;-144.06;62.79
11017;BME280;54687;50.800;6.772;2023-01-26T12:26:37;61197.72;;;-144.06;63.05
11017;BME280;54687;50.800;6.772;2023-01-26T12:29:12;61220.78;;;-144.06;62.28
11017;BME280;54687;50.800;6.772;2023-01-26T12:31:45;61201.91;;;-144.06;63.20
11017;BME280;54687;50.800;6.772;2023-01-26T12:34:15;61258.53;;;-144.06;63.69
11017;BME280;54687;50.800;6.772;2023-01-26T12:36:46;61235.47;;;-144.06;64.17
11017;BME280;54687;50.800;6.772;2023-01-26T12:39:21;61239.66;;;-144.06;63.91
11017;BME280;54687;50.800;6.772;2023-01-26T12:42:00;61220.78;;;-144.06;64.13
11017;BME280;54687;50.800;6.772;2023-01-26T12:44:34;61231.25;;;-144.06;64.60
11017;BME280;54687;50.800;6.772;2023-01-26T12:47:06;61231.25;;;-144.06;64.70
11017;BME280;54687;50.800;6.772;2023-01-26T12:49:40;61227.06;;;-144.06;63.48
11017;BME280;54687;50.800;6.772;2023-01-26T12:52:14;61185.16;;;-144.06;63.55
11017;BME280;54687;50.800;6.772;2023-01-26T12:54:45;61222.88;;;-144.06;64.13
11017;BME280;54687;50.800;6.772;2023-01-26T12:57:17;61231.25;;;-144.06;64.43